createdAt,value
2022-10-11T00:01:17.448Z,95297.34
2022-10-11T00:03:43.995Z,95319.16
2022-10-11T00:06:10.441Z,95319.50
2022-10-11T00:08:36.921Z,95322.47
2022-10-11T00:11:06.077Z,95323.03
2022-10-11T00:13:33.149Z,95310.69
2022-10-11T00:15:59.598Z,95304.47
2022-10-11T00:18:26.819Z,95327.63
2022-10-11T00:21:04.632Z,95324.88
2022-10-11T00:23:31.576Z,95323.59
2022-10-11T00:26:00.213Z,95328.59
2022-10-11T00:28:26.980Z,95336.41
2022-10-11T00:30:53.475Z,95324.13
2022-10-11T00:33:19.894Z,95321.75
2022-10-11T00:35:46.352Z,95321.59
2022-10-11T00:38:12.874Z,95327.78
2022-10-11T00:40:39.256Z,95330.28
2022-10-11T00:43:15.093Z,95331.84
2022-10-11T00:45:56.820Z,95330.78
2022-10-11T00:48:27.700Z,95327.56
2022-10-11T00:50:57.002Z,95331.84
2022-10-11T00:53:23.885Z,95338.16
2022-10-11T00:55:59.672Z,95328.44
2022-10-11T00:58:26.482Z,95314.56
2022-10-11T01:00:54.133Z,95331.53
2022-10-11T01:03:24.774Z,95330.72
2022-10-11T01:05:51.811Z,95316.03
2022-10-11T01:08:18.532Z,95340.31
2022-10-11T01:10:45.086Z,95340.81
2022-10-11T01:13:39.234Z,95343.13
2022-10-11T01:16:16.315Z,95361.19
2022-10-11T01:19:21.821Z,95375.97
2022-10-11T01:22:19.271Z,95354.16
2022-10-11T01:25:10.886Z,95362.25
2022-10-11T01:27:42.345Z,95359.28
2022-10-11T01:30:34.139Z,95367.66
2022-10-11T01:33:19.037Z,95374.44
2022-10-11T01:35:56.976Z,95384.06
2022-10-11T01:38:31.631Z,95368.13
2022-10-11T01:41:23.550Z,95369.41
2022-10-11T01:43:54.405Z,95400.13
2022-10-11T01:46:21.434Z,95398.47
2022-10-11T01:48:54.758Z,95393.16
2022-10-11T01:51:24.436Z,95398.41
2022-10-11T01:53:50.767Z,95397.31
2022-10-11T01:56:41.816Z,95390.22
2022-10-11T01:59:19.691Z,95390.00
2022-10-11T02:02:01.303Z,95379.06
2022-10-11T02:04:36.204Z,95371.94
2022-10-11T02:07:08.306Z,95379.00
2022-10-11T02:09:48.176Z,95357.41
2022-10-11T02:12:30.305Z,95372.03
2022-10-11T02:14:59.383Z,95372.81
2022-10-11T02:17:32.347Z,95368.56
2022-10-11T02:20:03.364Z,95372.59
2022-10-11T02:22:38.717Z,95374.19
2022-10-11T02:25:11.003Z,95361.94
2022-10-11T02:27:40.589Z,95367.84
2022-10-11T02:30:07.848Z,95369.44
2022-10-11T02:32:38.071Z,95367.59
2022-10-11T02:35:04.922Z,95369.75
2022-10-11T02:37:39.595Z,95367.00
2022-10-11T02:40:32.309Z,95368.69
2022-10-11T02:43:12.906Z,95355.41
2022-10-11T02:45:44.649Z,95368.63
2022-10-11T02:48:12.459Z,95378.25
2022-10-11T02:50:40.380Z,95379.84
2022-10-11T02:53:07.487Z,95360.41
2022-10-11T02:55:34.681Z,95358.72
2022-10-11T02:58:01.492Z,95357.19
2022-10-11T03:00:28.349Z,95362.28
2022-10-11T03:02:54.906Z,95363.66
2022-10-11T03:05:22.437Z,95376.38
2022-10-11T03:07:48.915Z,95382.75
2022-10-11T03:10:15.405Z,95378.25
2022-10-11T03:12:41.911Z,95389.38
2022-10-11T03:15:08.756Z,95386.47
2022-10-11T03:17:36.845Z,95384.38
2022-10-11T03:20:07.265Z,95382.84
2022-10-11T03:22:33.786Z,95389.75
2022-10-11T03:25:04.045Z,95392.38
2022-10-11T03:27:31.520Z,95392.75
2022-10-11T03:29:57.982Z,95383.19
2022-10-11T03:32:24.984Z,95373.22
2022-10-11T03:34:51.447Z,95378.16
2022-10-11T03:37:18.266Z,95380.81
2022-10-11T03:39:45.686Z,95381.38
2022-10-11T03:42:12.833Z,95379.06
2022-10-11T03:44:39.288Z,95363.13
2022-10-11T03:47:06.103Z,95377.69
2022-10-11T03:49:32.515Z,95370.72
2022-10-11T03:51:59.150Z,95372.09
2022-10-11T03:54:25.974Z,95360.09
2022-10-11T03:56:52.607Z,95353.06
2022-10-11T03:59:19.080Z,95349.25
2022-10-11T04:01:45.516Z,95363.22
2022-10-11T04:04:12.048Z,95358.47
2022-10-11T04:06:38.427Z,95352.09
2022-10-11T04:09:05.068Z,95349.78
2022-10-11T04:11:31.459Z,95347.69
2022-10-11T04:13:57.988Z,95343.31
2022-10-11T04:16:24.430Z,95335.16
2022-10-11T04:18:50.911Z,95330.16
2022-10-11T04:21:17.934Z,95329.91
2022-10-11T04:23:44.440Z,95335.16
2022-10-11T04:26:10.989Z,95336.78
2022-10-11T04:28:37.556Z,95316.59
2022-10-11T04:31:05.182Z,95319.50
2022-10-11T04:33:31.642Z,95329.44
2022-10-11T04:35:58.094Z,95322.75
2022-10-11T04:38:24.628Z,95320.31
2022-10-11T04:40:51.195Z,95320.88
2022-10-11T04:43:19.016Z,95326.28
2022-10-11T04:45:45.520Z,95303.78
2022-10-11T04:48:11.947Z,95311.78
2022-10-11T04:50:38.423Z,95316.13
2022-10-11T04:53:04.984Z,95323.31
2022-10-11T04:55:31.507Z,95327.09
2022-10-11T04:57:57.940Z,95328.63
2022-10-11T05:00:24.404Z,95329.13
2022-10-11T05:02:52.176Z,95338.72
2022-10-11T05:05:18.587Z,95324.28
2022-10-11T05:07:45.034Z,95340.09
2022-10-11T05:10:11.498Z,95329.91
2022-10-11T05:12:37.961Z,95333.47
2022-10-11T05:15:04.984Z,95335.56
2022-10-11T05:17:32.351Z,95350.72
2022-10-11T05:19:58.779Z,95346.94
2022-10-11T05:22:25.230Z,95349.63
2022-10-11T05:24:51.602Z,95326.44
2022-10-11T05:27:18.067Z,95349.25
2022-10-11T05:29:44.572Z,95341.03
2022-10-11T05:32:11.070Z,95332.41
2022-10-11T05:34:37.564Z,95346.69
2022-10-11T05:37:04.368Z,95342.75
2022-10-11T05:39:30.852Z,95360.72
2022-10-11T05:41:57.359Z,95357.28
2022-10-11T05:44:23.915Z,95349.81
2022-10-11T05:46:50.315Z,95359.59
2022-10-11T05:49:16.733Z,95357.50
2022-10-11T05:51:43.538Z,95373.22
2022-10-11T05:54:09.926Z,95361.69
2022-10-11T05:56:36.358Z,95381.06
2022-10-11T05:59:04.182Z,95361.25
2022-10-11T06:01:30.713Z,95390.47
2022-10-11T06:03:57.255Z,95393.22
2022-10-11T06:06:23.815Z,95393.47
2022-10-11T06:08:50.574Z,95392.91
2022-10-11T06:11:20.455Z,95393.22
2022-10-11T06:13:47.505Z,95402.91
2022-10-11T06:16:14.501Z,95390.94
2022-10-11T06:18:41.012Z,95408.38
2022-10-11T06:21:07.520Z,95406.34
2022-10-11T06:23:34.153Z,95412.72
2022-10-11T06:26:05.532Z,95392.75
2022-10-11T06:28:33.396Z,95411.44
2022-10-11T06:31:00.319Z,95412.31
2022-10-11T06:33:27.205Z,95413.63
2022-10-11T06:36:06.897Z,95404.72
2022-10-11T06:38:33.960Z,95432.25
2022-10-11T06:41:17.243Z,95416.09
2022-10-11T06:43:44.684Z,95412.00
2022-10-11T06:46:11.479Z,95428.88
2022-10-11T06:48:46.134Z,95445.41
2022-10-11T06:51:13.898Z,95439.50
2022-10-11T06:53:40.790Z,95435.81
2022-10-11T06:56:12.535Z,95443.88
2022-10-11T06:58:39.878Z,95434.09
2022-10-11T07:01:12.573Z,95444.50
2022-10-11T07:03:39.424Z,95441.50
2022-10-11T07:06:11.260Z,95448.22
2022-10-11T07:08:38.459Z,95445.06
2022-10-11T07:11:10.868Z,95449.13
2022-10-11T07:13:38.567Z,95455.72
2022-10-11T07:16:08.240Z,95447.53
2022-10-11T07:18:35.149Z,95472.09
2022-10-11T07:21:11.257Z,95474.25
2022-10-11T07:23:38.463Z,95471.78
2022-10-11T07:26:07.542Z,95471.44
2022-10-11T07:28:35.775Z,95475.78
2022-10-11T07:31:19.642Z,95470.91
2022-10-11T07:33:46.121Z,95470.25
2022-10-11T07:36:13.415Z,95477.22
2022-10-11T07:38:41.278Z,95476.97
2022-10-11T07:41:07.831Z,95474.03
2022-10-11T07:43:34.293Z,95477.63
2022-10-11T07:46:04.420Z,95459.47
2022-10-11T07:48:32.980Z,95463.75
2022-10-11T07:51:07.509Z,95474.00
2022-10-11T07:54:09.618Z,95463.19
2022-10-11T07:56:37.485Z,95477.19
2022-10-11T07:59:04.172Z,95470.13
2022-10-11T08:01:31.390Z,95474.84
2022-10-11T08:03:58.747Z,95456.69
2022-10-11T08:06:30.318Z,95470.53
2022-10-11T08:08:58.844Z,95473.06
2022-10-11T08:11:31.024Z,95478.69
2022-10-11T08:13:59.415Z,95477.19
2022-10-11T08:16:25.909Z,95480.25
2022-10-11T08:18:54.353Z,95488.59
2022-10-11T08:24:03.918Z,95486.78
2022-10-11T08:26:31.063Z,95482.88
2022-10-11T08:28:58.706Z,95489.56
2022-10-11T08:31:25.173Z,95476.25
2022-10-11T08:33:51.633Z,95491.06
2022-10-11T08:36:17.997Z,95502.19
2022-10-11T08:38:44.464Z,95488.19
2022-10-11T08:41:26.620Z,95487.47
2022-10-11T08:44:26.151Z,95494.88
2022-10-11T08:47:00.442Z,95494.88
2022-10-11T08:49:32.452Z,95488.41
2022-10-11T08:52:06.397Z,95499.06
2022-10-11T08:55:11.095Z,95487.22
2022-10-11T08:57:39.482Z,95484.91
2022-10-11T09:00:11.215Z,95492.56
2022-10-11T09:03:09.270Z,95493.28
2022-10-11T09:05:58.555Z,95493.38
2022-10-11T09:09:07.059Z,95485.97
2022-10-11T09:11:36.085Z,95498.09
2022-10-11T09:14:17.695Z,95490.72
2022-10-11T09:16:56.239Z,95497.22
2022-10-11T09:19:42.809Z,95492.56
2022-10-11T09:22:37.580Z,95491.19
2022-10-11T09:25:25.224Z,95490.72
2022-10-11T09:28:05.409Z,95494.69
2022-10-11T09:30:33.117Z,95493.97
2022-10-11T09:33:08.545Z,95489.25
2022-10-11T09:35:42.799Z,95481.59
2022-10-11T09:38:36.814Z,95485.19
2022-10-11T09:41:16.858Z,95495.94
2022-10-11T09:43:51.820Z,95471.84
2022-10-11T09:46:35.132Z,95484.91
2022-10-11T09:49:07.792Z,95484.56
2022-10-11T09:51:34.472Z,95476.44
2022-10-11T09:54:10.444Z,95489.78
2022-10-11T09:56:42.876Z,95485.28
2022-10-11T09:59:33.071Z,95485.03
2022-10-11T10:02:06.740Z,95484.53
2022-10-11T10:04:33.258Z,95487.41
2022-10-11T10:07:12.796Z,95485.56
2022-10-11T10:09:39.215Z,95483.50
2022-10-11T10:12:12.655Z,95488.22
2022-10-11T10:14:41.029Z,95490.59
2022-10-11T10:17:17.314Z,95489.97
2022-10-11T10:19:50.381Z,95488.34
2022-10-11T10:22:20.283Z,95484.91
2022-10-11T10:24:48.710Z,95484.38
2022-10-11T10:27:21.144Z,95478.38
2022-10-11T10:30:02.585Z,95475.44
2022-10-11T10:32:35.935Z,95476.28
2022-10-11T10:35:16.697Z,95476.41
2022-10-11T10:37:57.729Z,95485.91
2022-10-11T10:40:47.068Z,95478.09
2022-10-11T10:43:16.420Z,95468.50
2022-10-11T10:45:49.088Z,95478.19
2022-10-11T10:48:48.163Z,95472.53
2022-10-11T10:51:28.149Z,95476.09
2022-10-11T10:54:14.621Z,95471.97
2022-10-11T10:56:51.239Z,95469.00
2022-10-11T10:59:53.536Z,95468.06
2022-10-11T11:02:41.615Z,95464.13
2022-10-11T11:05:13.548Z,95469.56
2022-10-11T11:07:47.158Z,95459.41
2022-10-11T11:10:19.263Z,95461.78
2022-10-11T11:12:56.776Z,95463.91
2022-10-11T11:15:50.870Z,95456.06
2022-10-11T11:18:39.653Z,95461.66
2022-10-11T11:21:32.687Z,95453.47
2022-10-11T11:24:37.027Z,95462.03
2022-10-11T11:27:17.464Z,95456.81
2022-10-11T11:30:01.887Z,95459.06
2022-10-11T11:32:49.390Z,95455.59
2022-10-11T11:35:24.793Z,95454.66
2022-10-11T11:38:02.474Z,95453.81
2022-10-11T11:40:43.055Z,95446.88
2022-10-11T11:43:19.369Z,95443.00
2022-10-11T11:45:51.668Z,95436.69
2022-10-11T11:48:20.992Z,95440.16
2022-10-11T11:51:10.068Z,95434.41
2022-10-11T11:53:49.891Z,95439.19
2022-10-11T11:56:22.209Z,95439.06
2022-10-11T11:58:59.561Z,95439.31
2022-10-11T12:01:39.827Z,95434.38
2022-10-11T12:04:29.443Z,95424.16
2022-10-11T12:07:18.136Z,95422.75
2022-10-11T12:09:50.678Z,95421.28
2022-10-11T12:12:29.479Z,95416.72
2022-10-11T12:15:20.167Z,95416.66
2022-10-11T12:17:59.130Z,95404.00
2022-10-11T12:20:28.668Z,95397.00
2022-10-11T12:23:02.151Z,95409.22
2022-10-11T12:25:28.722Z,95403.00
2022-10-11T12:27:57.497Z,95411.94
2022-10-11T12:30:42.772Z,95404.53
2022-10-11T12:33:22.880Z,95396.38
2022-10-11T12:36:01.515Z,95401.75
2022-10-11T12:38:39.928Z,95404.00
2022-10-11T12:41:09.112Z,95400.34
2022-10-11T12:43:57.076Z,95397.25
2022-10-11T12:46:33.284Z,95398.13
2022-10-11T12:49:21.294Z,95404.78
2022-10-11T12:52:12.887Z,95403.59
2022-10-11T12:55:03.102Z,95400.28
2022-10-11T12:57:50.872Z,95393.78
2022-10-11T13:00:21.578Z,95382.63
2022-10-11T13:02:49.318Z,95387.75
2022-10-11T13:05:44.998Z,95385.66
2022-10-11T13:08:18.818Z,95394.13
2022-10-11T13:10:47.546Z,95389.66
2022-10-11T13:13:27.212Z,95389.69
2022-10-11T13:15:56.541Z,95387.22
2022-10-11T13:18:25.425Z,95388.41
2022-10-11T13:20:51.944Z,95384.56
2022-10-11T13:23:28.269Z,95391.16
2022-10-11T13:25:55.943Z,95386.78
2022-10-11T13:28:23.857Z,95382.56
2022-10-11T13:30:54.425Z,95383.28
2022-10-11T13:33:33.997Z,95385.22
2022-10-11T13:36:02.865Z,95389.00
2022-10-11T13:38:32.933Z,95384.94
2022-10-11T13:41:03.086Z,95376.28
2022-10-11T13:43:31.034Z,95389.09
2022-10-11T13:45:59.964Z,95369.66
2022-10-11T13:48:31.618Z,95381.13
2022-10-11T13:51:09.358Z,95384.16
2022-10-11T13:53:35.918Z,95378.09
2022-10-11T13:56:08.534Z,95378.63
2022-10-11T13:58:54.859Z,95387.38
2022-10-11T14:01:25.001Z,95379.94
2022-10-11T14:04:18.194Z,95373.22
2022-10-11T14:06:51.976Z,95375.09
2022-10-11T14:09:32.545Z,95368.13
2022-10-11T14:12:29.891Z,95372.66
2022-10-11T14:14:57.475Z,95370.00
2022-10-11T14:17:37.869Z,95376.13
2022-10-11T14:20:45.745Z,95378.00
2022-10-11T14:23:13.311Z,95367.16
2022-10-11T14:25:39.745Z,95377.50
2022-10-11T14:28:12.591Z,95375.34
2022-10-11T14:30:41.417Z,95368.63
2022-10-11T14:33:08.105Z,95364.66
2022-10-11T14:35:34.856Z,95368.94
2022-10-11T14:38:01.328Z,95371.59
2022-10-11T14:40:30.776Z,95368.13
2022-10-11T14:42:57.507Z,95369.19
2022-10-11T14:45:24.138Z,95362.00
2022-10-11T14:47:50.875Z,95363.84
2022-10-11T14:50:28.580Z,95363.63
2022-10-11T14:52:55.861Z,95358.28
2022-10-11T14:55:22.765Z,95366.28
2022-10-11T14:57:49.308Z,95363.63
2022-10-11T15:00:25.153Z,95368.13
2022-10-11T15:02:52.819Z,95363.38
2022-10-11T15:05:20.485Z,95362.81
2022-10-11T15:07:47.251Z,95365.47
2022-10-11T15:10:27.457Z,95361.75
2022-10-11T15:12:55.741Z,95359.09
2022-10-11T15:15:27.735Z,95361.56
2022-10-11T15:17:57.085Z,95356.50
2022-10-11T15:20:23.570Z,95361.66
2022-10-11T15:22:50.453Z,95364.00
2022-10-11T15:25:17.226Z,95365.13
2022-10-11T15:27:44.240Z,95362.09
2022-10-11T15:30:25.819Z,95365.31
2022-10-11T15:32:52.817Z,95361.38
2022-10-11T15:35:20.063Z,95357.97
2022-10-11T15:37:46.895Z,95358.09
2022-10-11T15:40:35.978Z,95369.31
2022-10-11T15:43:03.303Z,95368.75
2022-10-11T15:45:30.231Z,95370.38
2022-10-11T15:47:57.722Z,95364.97
2022-10-11T15:50:37.447Z,95368.50
2022-10-11T15:53:09.680Z,95365.84
2022-10-11T15:55:47.477Z,95362.31
2022-10-11T15:58:14.922Z,95367.16
2022-10-11T16:00:42.857Z,95371.19
2022-10-11T16:03:12.065Z,95377.88
2022-10-11T16:05:39.124Z,95370.19
2022-10-11T16:08:05.699Z,95362.88
2022-10-11T16:10:32.211Z,95363.38
2022-10-11T16:12:58.662Z,95363.38
2022-10-11T16:15:25.087Z,95371.19
2022-10-11T16:17:51.733Z,95373.84
2022-10-11T16:20:22.137Z,95368.81
2022-10-11T16:22:49.529Z,95370.94
2022-10-11T16:25:16.232Z,95374.97
2022-10-11T16:27:44.126Z,95374.97
2022-10-11T16:30:15.111Z,95373.34
2022-10-11T16:32:42.052Z,95374.34
2022-10-11T16:35:09.060Z,95378.88
2022-10-11T16:37:36.270Z,95379.44
2022-10-11T16:40:03.310Z,95372.66
2022-10-11T16:42:29.875Z,95373.03
2022-10-11T16:44:56.691Z,95378.88
2022-10-11T16:47:23.548Z,95384.50
2022-10-11T16:49:50.215Z,95387.75
2022-10-11T16:52:17.296Z,95386.13
2022-10-11T16:54:47.867Z,95386.13
2022-10-11T16:57:16.337Z,95381.53
2022-10-11T16:59:43.242Z,95381.84
2022-10-11T17:02:16.529Z,95391.22
2022-10-11T17:04:43.394Z,95388.53
2022-10-11T17:07:13.034Z,95390.16
2022-10-11T17:09:43.932Z,95395.25
2022-10-11T17:12:13.179Z,95384.28
2022-10-11T17:14:41.049Z,95393.94
2022-10-11T17:17:09.210Z,95393.94
2022-10-11T17:19:42.595Z,95399.03
2022-10-11T17:22:12.415Z,95396.94
2022-10-11T17:24:39.120Z,95396.00
2022-10-11T17:27:06.601Z,95390.72
2022-10-11T17:29:33.705Z,95397.81
2022-10-11T17:32:00.507Z,95390.03
2022-10-11T17:34:26.968Z,95394.94
2022-10-11T17:36:53.370Z,95404.38
2022-10-11T17:39:22.298Z,95389.41
2022-10-11T17:41:49.429Z,95405.72
2022-10-11T17:44:17.985Z,95394.75
2022-10-11T17:46:44.912Z,95402.00
2022-10-11T17:49:12.140Z,95405.50
2022-10-11T17:51:41.422Z,95409.78
2022-10-11T17:54:12.993Z,95406.28
2022-10-11T17:56:41.520Z,95408.16
2022-10-11T17:59:14.446Z,95405.50
2022-10-11T18:01:41.445Z,95400.72
2022-10-11T18:04:10.421Z,95407.91
2022-10-11T18:06:39.548Z,95395.63
2022-10-11T18:09:06.942Z,95405.25
2022-10-11T18:11:33.782Z,95403.38
2022-10-11T18:14:00.829Z,95391.59
2022-10-11T18:16:29.062Z,95394.56
2022-10-11T18:18:59.345Z,95396.19
2022-10-11T18:21:33.437Z,95398.28
2022-10-11T18:24:02.243Z,95393.75
2022-10-11T18:26:30.607Z,95394.06
2022-10-11T18:28:58.420Z,95388.97
2022-10-11T18:31:27.817Z,95395.38
2022-10-11T18:33:54.597Z,95386.25
2022-10-11T18:36:24.379Z,95386.50
2022-10-11T18:38:59.485Z,95388.66
2022-10-11T18:41:30.634Z,95385.69
2022-10-11T18:44:00.041Z,95396.44
2022-10-11T18:46:27.837Z,95386.50
2022-10-11T18:48:55.868Z,95389.47
2022-10-11T18:51:41.590Z,95403.38
2022-10-11T18:54:11.388Z,95396.44
2022-10-11T18:56:39.399Z,95388.91
2022-10-11T18:59:07.141Z,95395.63
2022-10-11T19:01:39.867Z,95395.38
2022-10-11T19:04:10.627Z,95390.53
2022-10-11T19:06:41.797Z,95395.06
2022-10-11T19:09:11.249Z,95397.47
2022-10-11T19:11:37.789Z,95397.47
2022-10-11T19:14:07.161Z,95396.44
2022-10-11T19:16:35.571Z,95385.44
2022-10-11T19:19:02.000Z,95394.81
2022-10-11T19:21:29.653Z,95391.59
2022-10-11T19:23:56.971Z,95396.69
2022-10-11T19:26:33.317Z,95394.25
2022-10-11T19:29:03.425Z,95378.50
2022-10-11T19:31:30.620Z,95389.97
2022-10-11T19:33:58.018Z,95392.41
2022-10-11T19:36:24.841Z,95396.13
2022-10-11T19:38:52.539Z,95391.34
2022-10-11T19:41:20.241Z,95397.25
2022-10-11T19:43:47.003Z,95389.16
2022-10-11T19:46:20.210Z,95391.34
2022-10-11T19:48:51.104Z,95388.13
2022-10-11T19:51:21.903Z,95385.94
2022-10-11T19:53:54.394Z,95389.09
2022-10-11T19:56:20.993Z,95395.56
2022-10-11T19:58:47.497Z,95399.53
2022-10-11T20:01:17.760Z,95400.34
2022-10-11T20:03:46.517Z,95404.06
2022-10-11T20:06:13.284Z,95403.19
2022-10-11T20:08:39.800Z,95398.47
2022-10-11T20:11:08.501Z,95404.88
2022-10-11T20:13:35.934Z,95404.38
2022-10-11T20:16:05.518Z,95406.22
2022-10-11T20:18:32.683Z,95404.41
2022-10-11T20:21:01.968Z,95409.09
2022-10-11T20:23:29.082Z,95409.41
2022-10-11T20:25:59.576Z,95413.91
2022-10-11T20:28:28.798Z,95416.09
2022-10-11T20:30:55.320Z,95408.28
2022-10-11T20:33:22.380Z,95408.91
2022-10-11T20:36:03.442Z,95414.78
2022-10-11T20:38:31.399Z,95411.56
2022-10-11T20:40:58.650Z,95409.00
2022-10-11T20:43:25.315Z,95403.69
2022-10-11T20:46:18.787Z,95410.19
2022-10-11T20:48:58.888Z,95417.88
2022-10-11T20:51:28.588Z,95409.41
2022-10-11T20:53:55.412Z,95414.72
2022-10-11T20:56:22.761Z,95414.78
2022-10-11T20:58:54.051Z,95415.59
2022-10-11T21:01:26.411Z,95420.63
2022-10-11T21:03:53.421Z,95417.88
2022-10-11T21:06:19.954Z,95411.38
2022-10-11T21:08:46.448Z,95412.97
2022-10-11T21:11:12.912Z,95420.75
2022-10-11T21:13:39.520Z,95409.44
2022-10-11T21:16:13.630Z,95418.06
2022-10-11T21:18:40.448Z,95410.88
2022-10-11T21:21:07.605Z,95410.38
2022-10-11T21:23:34.663Z,95400.53
2022-10-11T21:26:05.533Z,95407.22
2022-10-11T21:28:32.237Z,95399.16
2022-10-11T21:31:05.448Z,95401.00
2022-10-11T21:33:31.940Z,95396.16
2022-10-11T21:35:58.455Z,95398.59
2022-10-11T21:38:25.841Z,95389.22
2022-10-11T21:40:52.562Z,95388.91
2022-10-11T21:43:18.999Z,95391.34
2022-10-11T21:45:46.093Z,95382.03
2022-10-11T21:48:12.548Z,95386.31
2022-10-11T21:50:39.264Z,95393.44
2022-10-11T21:53:05.672Z,95382.47
2022-10-11T21:55:32.160Z,95380.97
2022-10-11T21:57:58.711Z,95386.31
2022-10-11T22:00:25.147Z,95379.63
2022-10-11T22:02:52.202Z,95378.06
2022-10-11T22:05:18.796Z,95365.72
2022-10-11T22:07:45.572Z,95382.69
2022-10-11T22:10:12.008Z,95378.50
2022-10-11T22:12:38.740Z,95376.69
2022-10-11T22:15:05.871Z,95382.47
2022-10-11T22:17:32.272Z,95370.75
2022-10-11T22:19:58.672Z,95374.03
2022-10-11T22:22:25.141Z,95372.91
2022-10-11T22:24:51.569Z,95377.63
2022-10-11T22:27:17.993Z,95373.41
2022-10-11T22:29:44.512Z,95376.94
2022-10-11T22:32:10.936Z,95363.09
2022-10-11T22:34:37.531Z,95366.94
2022-10-11T22:37:03.935Z,95364.53
2022-10-11T22:39:30.502Z,95380.91
2022-10-11T22:41:56.903Z,95384.38
2022-10-11T22:44:23.315Z,95381.22
2022-10-11T22:46:49.826Z,95368.31
2022-10-11T22:49:16.619Z,95369.38
2022-10-11T22:51:43.030Z,95367.19
2022-10-11T22:54:10.905Z,95376.63
2022-10-11T22:56:37.322Z,95376.38
2022-10-11T22:59:04.449Z,95373.16
2022-10-11T23:01:30.870Z,95374.78
2022-10-11T23:03:57.374Z,95367.25
2022-10-11T23:06:23.951Z,95371.31
2022-10-11T23:08:50.420Z,95377.44
2022-10-11T23:11:16.880Z,95374.72
2022-10-11T23:13:43.391Z,95380.34
2022-10-11T23:16:11.605Z,95377.50
2022-10-11T23:18:38.349Z,95376.38
2022-10-11T23:21:06.020Z,95375.13
2022-10-11T23:23:32.585Z,95376.50
2022-10-11T23:26:08.098Z,95372.53
2022-10-11T23:28:35.144Z,95368.50
2022-10-11T23:31:07.244Z,95377.31
2022-10-11T23:33:33.780Z,95372.72
2022-10-11T23:36:00.166Z,95366.00
2022-10-11T23:38:26.678Z,95368.69
2022-10-11T23:40:53.108Z,95377.25
2022-10-11T23:43:19.542Z,95365.44
2022-10-11T23:45:45.970Z,95375.63
2022-10-11T23:48:12.431Z,95373.75
2022-10-11T23:50:38.920Z,95379.59
2022-10-11T23:53:05.338Z,95373.94
2022-10-11T23:55:32.750Z,95372.31
2022-10-11T23:57:59.165Z,95379.09
